Latest Weather Observations for Melville Water

IDW60801

Issued at 1:32 pm WST Tuesday 9 February 2016 (issued every 30 minutes, with the page automatically refreshed every 10 minutes)

About weather observations | Map of weather stations | Latest weather observations for WA | Other Formats
Station Details ID: 009091 Name: INNER DOLPHIN PYLON Lat: -31.99 Lon: 115.83 Height: 0.0 m
Data from the previous 72 hours. | See also: Recent months at Melville Water
Date/Time
WST
Temp
°C
App
Temp
°C
Dew
Point
Rel
Hum
%
Delta-T
°C
Wind Press
QNH
hPa
Press
MSL
hPa
Rain
since 9 am
mm
Dir
 
Spd
km/h
Gust
km/h
Spd
kts
Gust
kts
09/01:30pm - - - - - WSW 15 22 8 12 - - -
09/01:00pm - - - - - WSW 11 15 6 8 - - -
09/12:30pm - - - - - WSW 17 20 9 11 - - -
09/12:00pm - - - - - W 17 20 9 11 - - -
09/11:30am - - - - - WSW 17 19 9 10 - - -
09/11:00am - - - - - SW 2 15 1 8 - - -
09/10:30am - - - - - SSW 4 11 2 6 - - -
09/10:00am - - - - - NE 9 13 5 7 - - -
09/09:30am - - - - - NE 15 19 8 10 - - -
09/09:00am - - - - - S 4 11 2 6 - - -
09/08:30am - - - - - W 6 11 3 6 - - -
09/08:00am - - - - - ENE 6 7 3 4 - - -
09/07:30am - - - - - ESE 7 13 4 7 - - -
09/07:00am - - - - - SSE 4 6 2 3 - - -
09/06:30am - - - - - E 2 4 1 2 - - -
09/06:00am - - - - - WSW 2 6 1 3 - - -
09/05:30am - - - - - SE 9 11 5 6 - - -
09/05:00am - - - - - ESE 7 11 4 6 - - -
09/04:30am - - - - - SW 6 7 3 4 - - -
09/04:00am - - - - - ESE 9 13 5 7 - - -
09/03:30am - - - - - SSE 6 7 3 4 - - -
09/03:00am - - - - - E 4 7 2 4 - - -
09/02:30am - - - - - E 2 4 1 2 - - -
09/02:00am - - - - - NNW 2 4 1 2 - - -
09/01:30am - - - - - CALM 0 4 0 2 - - -
09/01:00am - - - - - ENE 2 4 1 2 - - -
09/12:30am - - - - - NE 2 4 1 2 - - -
09/12:00am - - - - - SW 4 6 2 3 - - -
 
Date/Time
WST
Temp
°C
App
Temp
°C
Dew
Point
Rel
Hum
%
Delta-T
°C
Wind Press
QNH
hPa
Press
MSL
hPa
Rain
since 9 am
mm
Dir
 
Spd
km/h
Gust
km/h
Spd
kts
Gust
kts
08/11:30pm - - - - - WSW 4 4 2 2 - - -
08/11:00pm - - - - - WSW 4 4 2 2 - - -
08/10:30pm - - - - - SE 2 4 1 2 - - -
08/10:00pm - - - - - SSE 7 13 4 7 - - -
08/09:30pm - - - - - SSE 13 15 7 8 - - -
08/09:00pm - - - - - SSE 15 17 8 9 - - -
08/08:30pm - - - - - SW 4 6 2 3 - - -
08/08:00pm - - - - - S 11 13 6 7 - - -
08/07:30pm - - - - - SSW 15 19 8 10 - - -
08/07:00pm - - - - - SSW 17 19 9 10 - - -
08/06:30pm - - - - - SSW 24 26 13 14 - - -
08/06:00pm - - - - - SW 19 22 10 12 - - -
08/05:30pm - - - - - SW 22 28 12 15 - - -
08/05:00pm - - - - - WSW 22 26 12 14 - - -
08/04:30pm - - - - - WSW 20 24 11 13 - - -
08/04:00pm - - - - - SW 22 26 12 14 - - -
08/03:30pm - - - - - SW 19 22 10 12 - - -
08/03:00pm - - - - - SSW 13 15 7 8 - - -
08/02:30pm - - - - - SSW 9 13 5 7 - - -
08/02:00pm - - - - - SW 7 11 4 6 - - -
08/01:30pm - - - - - ENE 7 11 4 6 - - -
08/01:00pm - - - - - NE 7 13 4 7 - - -
08/12:30pm - - - - - NE 7 19 4 10 - - -
08/12:00pm - - - - - ENE 19 24 10 13 - - -
08/11:30am - - - - - ENE 17 20 9 11 - - -
08/11:00am - - - - - ENE 22 30 12 16 - - -
08/10:30am - - - - - ENE 24 32 13 17 - - -
08/10:00am - - - - - NE 26 35 14 19 - - -
08/09:30am - - - - - NE 26 35 14 19 - - -
08/09:00am - - - - - ENE 15 19 8 10 - - -
08/08:30am - - - - - ENE 19 24 10 13 - - -
08/08:00am - - - - - ENE 15 19 8 10 - - -
08/07:30am - - - - - E 17 20 9 11 - - -
08/07:00am - - - - - E 19 22 10 12 - - -
08/06:30am - - - - - ENE 22 26 12 14 - - -
08/06:00am - - - - - ENE 26 33 14 18 - - -
08/05:30am - - - - - ENE 24 32 13 17 - - -
08/05:00am - - - - - E 20 26 11 14 - - -
08/04:30am - - - - - E 9 11 5 6 - - -
08/04:00am - - - - - E 9 11 5 6 - - -
08/03:30am - - - - - ENE 9 11 5 6 - - -
08/03:00am - - - - - ESE 7 9 4 5 - - -
08/02:30am - - - - - ENE 4 6 2 3 - - -
08/02:00am - - - - - SE 6 9 3 5 - - -
08/01:30am - - - - - SSE 7 13 4 7 - - -
08/01:00am - - - - - S 2 4 1 2 - - -
08/12:30am - - - - - S 6 7 3 4 - - -
08/12:00am - - - - - SSW 4 6 2 3 - - -
 
Date/Time
WST
Temp
°C
App
Temp
°C
Dew
Point
Rel
Hum
%
Delta-T
°C
Wind Press
QNH
hPa
Press
MSL
hPa
Rain
since 9 am
mm
Dir
 
Spd
km/h
Gust
km/h
Spd
kts
Gust
kts
07/11:30pm - - - - - SSW 4 6 2 3 - - -
07/11:00pm - - - - - SSW 4 7 2 4 - - -
07/10:30pm - - - - - S 6 7 3 4 - - -
07/10:00pm - - - - - SSE 11 17 6 9 - - -
07/09:30pm - - - - - SSE 17 20 9 11 - - -
07/09:00pm - - - - - S 17 20 9 11 - - -
07/08:30pm - - - - - S 15 22 8 12 - - -
07/08:00pm - - - - - S 6 9 3 5 - - -
07/07:30pm - - - - - SSW 15 20 8 11 - - -
07/07:00pm - - - - - SSW 15 22 8 12 - - -
07/06:30pm - - - - - SSW 22 28 12 15 - - -
07/06:00pm - - - - - SSW 20 26 11 14 - - -
07/05:30pm - - - - - SW 24 28 13 15 - - -
07/05:00pm - - - - - SW 19 22 10 12 - - -
07/04:30pm - - - - - SW 22 28 12 15 - - -
07/04:00pm - - - - - SW 24 26 13 14 - - -
07/03:30pm - - - - - WSW 22 26 12 14 - - -
07/03:00pm - - - - - WSW 19 22 10 12 - - -
07/02:30pm - - - - - SW 24 30 13 16 - - -
07/02:00pm - - - - - SW 13 17 7 9 - - -
07/01:30pm - - - - - E 6 9 3 5 - - -
07/01:00pm - - - - - WSW 4 6 2 3 - - -
07/12:30pm - - - - - NE 9 15 5 8 - - -
07/12:00pm - - - - - NE 11 17 6 9 - - -
07/11:30am - - - - - E 15 22 8 12 - - -
07/11:00am - - - - - ENE 17 22 9 12 - - -
07/10:30am - - - - - ENE 13 20 7 11 - - -
07/10:00am - - - - - ENE 22 30 12 16 - - -
07/09:30am - - - - - ENE 24 33 13 18 - - -
07/09:00am - - - - - ENE 28 37 15 20 - - -
07/08:30am - - - - - ENE 28 39 15 21 - - -
07/08:00am - - - - - ENE 26 33 14 18 - - -
07/07:30am - - - - - E 19 24 10 13 - - -
07/07:00am - - - - - E 20 26 11 14 - - -
07/06:30am - - - - - E 13 19 7 10 - - -
07/06:00am - - - - - E 17 20 9 11 - - -
07/05:30am - - - - - E 20 26 11 14 - - -
07/05:00am - - - - - ESE 17 22 9 12 - - -
07/04:30am - - - - - ESE 20 24 11 13 - - -
07/04:00am - - - - - ESE 26 33 14 18 - - -
07/03:30am - - - - - ESE 22 26 12 14 - - -
07/03:00am - - - - - ESE 22 26 12 14 - - -
07/02:30am - - - - - ESE 20 26 11 14 - - -
07/02:00am - - - - - ESE 20 24 11 13 - - -
07/01:30am - - - - - ESE 22 33 12 18 - - -
07/01:00am - - - - - ESE 24 30 13 16 - - -
07/12:30am - - - - - ESE 9 15 5 8 - - -
07/12:00am - - - - - SSE 7 11 4 6 - - -
 
Date/Time
WST
Temp
°C
App
Temp
°C
Dew
Point
Rel
Hum
%
Delta-T
°C
Wind Press
QNH
hPa
Press
MSL
hPa
Rain
since 9 am
mm
Dir
 
Spd
km/h
Gust
km/h
Spd
kts
Gust
kts
06/11:30pm - - - - - S 7 9 4 5 - - -
06/11:00pm - - - - - SSW 11 15 6 8 - - -
06/10:30pm - - - - - SSW 7 9 4 5 - - -
06/10:00pm - - - - - SW 9 11 5 6 - - -
06/09:30pm - - - - - SW 9 11 5 6 - - -
06/09:00pm - - - - - SW 13 15 7 8 - - -
06/08:30pm - - - - - SW 13 17 7 9 - - -
06/08:00pm - - - - - SW 17 20 9 11 - - -
06/07:30pm - - - - - SW 19 24 10 13 - - -
06/07:00pm - - - - - SW 17 24 9 13 - - -
06/06:30pm - - - - - SSW 26 32 14 17 - - -
06/06:00pm - - - - - SW 26 32 14 17 - - -
06/05:30pm - - - - - SW 30 35 16 19 - - -
06/05:00pm - - - - - SW 32 37 17 20 - - -
06/04:30pm - - - - - SW 28 37 15 20 - - -
06/04:00pm - - - - - SW 24 32 13 17 - - -
06/03:30pm - - - - - SW 28 33 15 18 - - -
06/03:00pm - - - - - SW 24 32 13 17 - - -
06/02:30pm - - - - - SW 24 28 13 15 - - -
06/02:00pm - - - - - WSW 22 26 12 14 - - -

Other Formats:

Comma delimited format used in spreadsheet applications
http://www.bom.gov.au/fwo/IDW60801/IDW60801.95620.axf

JavaScript Object Notation format (JSON) in row-major order
http://www.bom.gov.au/fwo/IDW60801/IDW60801.95620.json